Pagrindinis puslapis
METAR-TAF:

METAR-TAF

Oro uostai :

Derbis, Australija

platuma: 17-22-12S, ilguma: 123-39-38E, Aukštis: 7 m

Dabartinis oras

Ataskaita buvo paskelbta 37 minutes, ne 20:00 UTC
Vėjas 7 kt iš Pietryčių
Temperatūra 21°C
Drėgmė 43%
Slėgis 1013 hPa
Matomumas 10 km arba daugiau

METAR: YDBY 202000Z AUTO 13007KT 9999 // NCD 21/08 Q1013

Laikas: 04:37 (20:37 UTC)


TAF: trūkstamas

Orai ataskaitas ir orų prognozės (METAR, TAF).

turimą stotys yra geltonos ir raudonos taškus žemėlapyje.

Perkelti pele per norėdami pamatyti stoties vardą.

Tada spustelėkite, norėdami matyti oro stebėjimo ir prognozės.

Norėdami pakeisti žemėlapį: spustelėkite ant žalios mygtukų su juodo kryžiaus žemyn,; žalią mygtuką su brūkšneliu, jei norite nutolinti; arba žalių rodyklių gretimoms žemėlapius.


METAR-TAF: